Accueil
METAR-TAF:

METAR-TAF

Aéroports :

Aéroport de Rijeka

Rijeka, Croatie

latitude: 45-13N, longitude: 014-35E, altitude: 85 m

Observation

Le bulletin a été fait il y a 14 minutes, à 05:30 UTC
Vent 11 kt de nord-est
Température 5°C
Humidité 65%
Pression 1030 hPa
Visibilité 10 km ou plus
Quelques nuages à une hauteur de 5000 ft

METAR: LDRI 240530Z 04011KT 9999 FEW050 05/M01 Q1030

Heure: 06:44 (05:44 UTC)

Prévision

Le bulletin a été fait il y a 6 heures et 19 minutes, à 23:25 UTC
Prévision valable du 24 à 00 UTC au 25 à 00 UTC
Vent 15 kt de nord-est
Visibilité 10 km ou plus
pas de nuages en-dessous de 1500 mètres et pas de cumulonimbus.
Probabilité 40% :
Temporairement
du 24 à 00 UTC au 24 à 18 UTC
Vent 8 kt de direction variable
Evoluant progressivement
du 24 à 15 UTC au 24 à 18 UTC
Vent 2 kt de direction variable

TAF: LDRI 232325Z 2400/2500 05015KT CAVOK TX07/2413Z TNM03/2423Z PROB40 TEMPO 2400/2418 VRB08KT BECMG 2415/2418 VRB02KT

Observations et prévisions météorologiques de plus de 4000 aéroports (messages METAR et TAF).

Les stations disponibles sont représentées par des disques jaunes et rouges sur la carte.

Passer la souris dessus pour voir le nom de la station.

Cliquer dessus pour voir les observations et prévisions météorologiques.

Pour changer de carte: cliquez sur les boutons verts avec une croix noire pour zoomer, sur le bouton vert avec un tiret pour effectuer un zoom arrière, ou sur les flèches vertes pour les cartes adjacentes.


METAR-TAF: